createdAt,value
2018-09-28T00:00:55.254Z,94.98
2018-09-28T00:01:55.301Z,94.12
2018-09-28T00:02:55.224Z,93.46
2018-09-28T00:03:55.199Z,93.17
2018-09-28T00:04:55.181Z,93.41
2018-09-28T00:05:55.159Z,92.83
2018-09-28T00:06:55.240Z,92.12
2018-09-28T00:07:55.124Z,93.02
2018-09-28T00:08:55.106Z,92.97
2018-09-28T00:09:55.189Z,93.93
2018-09-28T00:10:55.073Z,93.65
2018-09-28T00:11:55.049Z,93.93
2018-09-28T00:12:55.034Z,93.65
2018-09-28T00:13:55.013Z,94.03
2018-09-28T00:14:54.994Z,94.12
2018-09-28T00:15:54.974Z,94.84
2018-09-28T00:16:54.958Z,94.70
2018-09-28T00:17:54.938Z,94.84
2018-09-28T00:18:54.919Z,94.84
2018-09-28T00:19:54.905Z,94.74
2018-09-28T00:20:54.892Z,95.32
2018-09-28T00:21:54.871Z,96.17
2018-09-28T00:22:54.845Z,95.98
2018-09-28T00:23:54.828Z,97.22
2018-09-28T00:24:54.825Z,97.18
2018-09-28T00:25:54.860Z,97.71
2018-09-28T00:26:54.771Z,97.13
2018-09-28T00:27:54.805Z,97.42
2018-09-28T00:28:54.758Z,97.61
2018-09-28T00:29:54.717Z,97.42
2018-09-28T00:30:54.696Z,97.80
2018-09-28T00:31:54.687Z,97.03
2018-09-28T00:32:54.661Z,98.08
2018-09-28T00:33:54.639Z,98.47
2018-09-28T00:34:54.630Z,98.66
2018-09-28T00:35:54.678Z,98.37
2018-09-28T00:36:54.587Z,98.56
2018-09-28T00:37:54.567Z,98.47
2018-09-28T00:38:54.548Z,99.04
2018-09-28T00:39:54.531Z,98.66
2018-09-28T00:40:54.514Z,99.13
2018-09-28T00:41:54.496Z,98.47
2018-09-28T00:42:54.472Z,97.80
2018-09-28T00:43:54.457Z,98.08
2018-09-28T00:44:54.436Z,98.08
2018-09-28T00:45:54.416Z,98.47
2018-09-28T00:46:54.396Z,98.47
2018-09-28T00:47:54.427Z,98.75
2018-09-28T00:48:54.359Z,98.70
2018-09-28T00:49:54.344Z,98.75
2018-09-28T00:50:54.322Z,98.85
2018-09-28T00:51:54.307Z,98.66
2018-09-28T00:52:54.286Z,98.47
2018-09-28T00:53:54.264Z,98.75
2018-09-28T00:54:54.246Z,99.32
2018-09-28T00:55:54.226Z,98.18
2018-09-28T00:56:54.218Z,97.99
2018-09-28T00:57:54.187Z,97.03
2018-09-28T00:58:54.210Z,97.89
2018-09-28T00:59:54.160Z,97.80
2018-09-28T01:00:54.132Z,97.61
2018-09-28T01:01:54.167Z,97.51
2018-09-28T01:02:54.106Z,97.51
2018-09-28T01:03:54.076Z,96.75
2018-09-28T01:04:54.058Z,96.17
2018-09-28T01:05:54.039Z,96.37
2018-09-28T01:06:54.026Z,95.98
2018-09-28T01:07:54.000Z,96.66
2018-09-28T01:08:53.980Z,96.75
2018-09-28T01:09:53.963Z,96.84
2018-09-28T01:10:53.959Z,97.13
2018-09-28T01:11:53.925Z,97.42
2018-09-28T01:12:53.905Z,97.61
2018-09-28T01:13:53.884Z,97.71
2018-09-28T01:14:53.935Z,97.03
2018-09-28T01:15:53.847Z,97.61
2018-09-28T01:16:53.828Z,97.89
2018-09-28T01:17:54.010Z,97.80
2018-09-28T01:18:53.789Z,98.27
2018-09-28T01:19:53.781Z,97.61
2018-09-28T01:20:53.802Z,97.13
2018-09-28T01:21:53.738Z,97.51
2018-09-28T01:22:53.714Z,97.71
2018-09-28T01:23:53.692Z,96.84
2018-09-28T01:24:53.681Z,97.71
2018-09-28T01:25:53.660Z,98.18
2018-09-28T01:26:53.644Z,99.04
2018-09-28T01:27:53.618Z,99.13
2018-09-28T01:28:53.600Z,99.23
2018-09-28T01:29:53.584Z,98.85
2018-09-28T01:30:53.561Z,98.47
2018-09-28T01:31:53.542Z,98.85
2018-09-28T01:32:53.526Z,99.23
2018-09-28T01:33:53.506Z,99.04
2018-09-28T01:34:53.488Z,98.47
2018-09-28T01:35:53.465Z,97.89
2018-09-28T01:36:53.587Z,97.51
2018-09-28T01:37:53.429Z,97.13
2018-09-28T01:38:53.410Z,97.51
2018-09-28T01:39:53.411Z,97.89
2018-09-28T01:40:53.373Z,97.80
2018-09-28T01:41:53.352Z,97.61
2018-09-28T01:42:53.335Z,98.37
2018-09-28T01:43:53.316Z,97.99
2018-09-28T01:44:53.425Z,98.37
2018-09-28T01:45:53.277Z,98.47
2018-09-28T01:46:53.267Z,98.61
2018-09-28T01:47:53.297Z,99.13
2018-09-28T01:48:53.221Z,99.04
2018-09-28T01:49:53.201Z,99.13
2018-09-28T01:50:53.231Z,98.37
2018-09-28T01:51:53.162Z,98.66
2018-09-28T01:52:53.142Z,97.61
2018-09-28T01:53:53.123Z,97.89
2018-09-28T01:54:53.114Z,97.61
2018-09-28T01:55:53.087Z,97.42
2018-09-28T01:56:53.074Z,97.51
2018-09-28T01:57:53.047Z,96.56
2018-09-28T01:58:53.047Z,96.03
2018-09-28T01:59:53.011Z,96.22
2018-09-28T02:00:52.992Z,96.27
2018-09-28T02:01:52.973Z,96.03
2018-09-28T02:02:52.952Z,95.27
2018-09-28T02:03:52.933Z,94.89
2018-09-28T02:04:52.916Z,94.79
2018-09-28T02:05:52.895Z,94.79
2018-09-28T02:06:52.969Z,94.98
2018-09-28T02:07:52.863Z,95.36
2018-09-28T02:08:52.844Z,95.36
2018-09-28T02:09:52.905Z,95.94
2018-09-28T02:10:52.800Z,96.03
2018-09-28T02:11:52.784Z,96.22
2018-09-28T02:12:52.793Z,96.32
2018-09-28T02:13:52.748Z,95.94
2018-09-28T02:14:52.734Z,95.75
2018-09-28T02:15:52.723Z,95.75
2018-09-28T02:16:52.688Z,95.56
2018-09-28T02:17:52.668Z,95.32
2018-09-28T02:18:52.654Z,94.17
2018-09-28T02:19:52.636Z,93.98
2018-09-28T02:20:52.618Z,93.21
2018-09-28T02:21:52.599Z,93.02
2018-09-28T02:22:52.580Z,92.64
2018-09-28T02:23:52.559Z,92.79
2018-09-28T02:24:52.551Z,92.59
2018-09-28T02:25:52.582Z,92.64
2018-09-28T02:26:52.502Z,92.93
2018-09-28T02:27:52.482Z,93.79
2018-09-28T02:28:52.470Z,93.41
2018-09-28T02:29:52.454Z,93.98
2018-09-28T02:30:52.429Z,93.50
2018-09-28T02:31:52.412Z,93.50
2018-09-28T02:32:52.392Z,93.60
2018-09-28T02:33:52.442Z,94.17
2018-09-28T02:34:52.354Z,94.65
2018-09-28T02:35:52.338Z,94.17
2018-09-28T02:36:52.322Z,94.17
2018-09-28T02:37:52.298Z,93.88
2018-09-28T02:38:52.280Z,94.17
2018-09-28T02:39:52.369Z,93.60
2018-09-28T02:40:52.247Z,94.17
2018-09-28T02:41:52.225Z,93.79
2018-09-28T02:42:52.207Z,94.27
2018-09-28T02:43:52.193Z,94.55
2018-09-28T02:44:52.181Z,94.36
2018-09-28T02:45:52.156Z,95.22
2018-09-28T02:46:52.137Z,94.84
2018-09-28T02:47:52.121Z,94.74
2018-09-28T02:48:52.101Z,94.55
2018-09-28T02:49:52.079Z,94.74
2018-09-28T02:50:52.060Z,94.84
2018-09-28T02:51:52.043Z,95.03
2018-09-28T02:52:52.030Z,94.93
2018-09-28T02:53:52.006Z,95.51
2018-09-28T02:54:51.987Z,94.93
2018-09-28T02:55:51.970Z,94.74
2018-09-28T02:56:51.987Z,94.65
2018-09-28T02:57:51.935Z,93.98
2018-09-28T02:58:52.065Z,94.36
2018-09-28T02:59:51.903Z,94.46
2018-09-28T03:00:51.880Z,94.65
2018-09-28T03:01:51.858Z,94.36
2018-09-28T03:02:51.841Z,94.84
2018-09-28T03:03:51.824Z,94.89
2018-09-28T03:04:51.808Z,94.65
2018-09-28T03:05:51.785Z,95.32
2018-09-28T03:06:51.769Z,95.51
2018-09-28T03:07:51.758Z,95.22
2018-09-28T03:08:51.730Z,95.70
2018-09-28T03:09:51.722Z,95.41
2018-09-28T03:10:51.692Z,95.32
2018-09-28T03:11:51.675Z,95.61
2018-09-28T03:12:51.664Z,95.32
2018-09-28T03:13:51.640Z,94.89
2018-09-28T03:14:51.634Z,94.89
2018-09-28T03:15:51.604Z,94.98
2018-09-28T03:16:51.583Z,94.31
2018-09-28T03:17:51.630Z,94.89
2018-09-28T03:18:51.569Z,94.98
2018-09-28T03:19:51.529Z,95.46
2018-09-28T03:20:51.513Z,95.36
2018-09-28T03:21:51.496Z,96.22
2018-09-28T03:22:51.493Z,95.65
2018-09-28T03:23:51.457Z,95.94
2018-09-28T03:24:51.442Z,95.46
2018-09-28T03:25:51.669Z,96.22
2018-09-28T03:26:51.403Z,95.56
2018-09-28T03:27:51.386Z,95.07
2018-09-28T03:28:51.369Z,95.07
2018-09-28T03:29:51.365Z,95.36
2018-09-28T03:30:51.336Z,96.13
2018-09-28T03:31:51.315Z,96.13
2018-09-28T03:32:51.294Z,96.03
2018-09-28T03:33:51.273Z,96.32
2018-09-28T03:34:51.257Z,96.51
2018-09-28T03:35:51.237Z,96.89
2018-09-28T03:36:51.223Z,96.70
2018-09-28T03:37:51.203Z,96.80
2018-09-28T03:38:51.183Z,97.08
2018-09-28T03:39:51.166Z,96.70
2018-09-28T03:40:51.148Z,97.28
2018-09-28T03:41:51.127Z,97.08
2018-09-28T03:42:51.112Z,97.75
2018-09-28T03:43:51.092Z,97.66
2018-09-28T03:44:51.219Z,97.56
2018-09-28T03:45:51.069Z,97.56
2018-09-28T03:46:51.039Z,97.66
2018-09-28T03:47:51.120Z,97.85
2018-09-28T03:48:51.002Z,98.04
2018-09-28T03:49:50.985Z,97.75
2018-09-28T03:50:50.976Z,98.33
2018-09-28T03:51:50.952Z,98.33
2018-09-28T03:52:50.932Z,98.13
2018-09-28T03:53:50.914Z,98.33
2018-09-28T03:54:50.895Z,98.80
2018-09-28T03:55:50.877Z,98.61
2018-09-28T03:56:50.859Z,99.28
2018-09-28T03:57:50.840Z,99.19
2018-09-28T03:58:50.822Z,99.28
2018-09-28T03:59:50.807Z,99.19
2018-09-28T04:00:50.786Z,98.99
2018-09-28T04:01:50.768Z,99.28
2018-09-28T04:02:50.815Z,98.71
2018-09-28T04:03:50.734Z,99.38
2018-09-28T04:04:50.715Z,99.28
2018-09-28T04:05:50.696Z,99.66
2018-09-28T04:06:50.699Z,99.95
2018-09-28T04:07:50.660Z,99.99
2018-09-28T04:08:50.644Z,99.85
2018-09-28T04:09:50.623Z,99.99
2018-09-28T04:10:50.608Z,99.99
2018-09-28T04:11:50.719Z,99.99
2018-09-28T04:12:50.570Z,99.99
2018-09-28T04:13:50.551Z,99.99
2018-09-28T04:14:50.533Z,99.99
2018-09-28T04:15:50.516Z,99.99
2018-09-28T04:16:50.506Z,99.99
2018-09-28T04:17:50.533Z,99.99
2018-09-28T04:18:50.464Z,99.99
2018-09-28T04:19:50.445Z,99.99
2018-09-28T04:20:50.430Z,99.99
2018-09-28T04:21:50.454Z,99.99
2018-09-28T04:22:50.390Z,99.99
2018-09-28T04:23:50.376Z,99.99
2018-09-28T04:24:50.354Z,99.99
2018-09-28T04:25:50.334Z,99.99
2018-09-28T04:26:50.333Z,99.99
2018-09-28T04:27:50.304Z,99.99
2018-09-28T04:28:50.287Z,99.99
2018-09-28T04:29:50.271Z,99.99
2018-09-28T04:30:50.249Z,99.99
2018-09-28T04:31:50.228Z,99.99
2018-09-28T04:32:50.220Z,99.99
2018-09-28T04:33:50.305Z,99.99
2018-09-28T04:34:50.179Z,99.99
2018-09-28T04:35:50.163Z,99.99
2018-09-28T04:36:50.221Z,99.99
2018-09-28T04:37:50.120Z,99.99
2018-09-28T04:38:50.101Z,99.99
2018-09-28T04:39:50.090Z,99.99
2018-09-28T04:40:50.067Z,99.99
2018-09-28T04:41:50.048Z,99.99
2018-09-28T04:42:50.032Z,99.99
2018-09-28T04:43:50.021Z,99.99
2018-09-28T04:44:50.002Z,99.99
2018-09-28T04:45:49.977Z,99.99
2018-09-28T04:46:49.957Z,99.99
2018-09-28T04:47:49.940Z,99.99
2018-09-28T04:48:49.921Z,99.99
2018-09-28T04:49:49.905Z,99.99
2018-09-28T04:50:49.888Z,99.99
2018-09-28T04:51:49.867Z,99.99
2018-09-28T04:52:49.904Z,99.99
2018-09-28T04:53:49.837Z,99.99
2018-09-28T04:54:49.817Z,99.99
2018-09-28T04:55:49.841Z,99.99
2018-09-28T04:56:49.779Z,99.99
2018-09-28T04:57:49.762Z,99.99
2018-09-28T04:58:49.747Z,99.99
2018-09-28T04:59:49.726Z,99.99
2018-09-28T05:00:49.715Z,99.99
2018-09-28T05:01:49.692Z,99.99
2018-09-28T05:02:49.671Z,99.99
2018-09-28T05:03:49.674Z,99.99
2018-09-28T05:04:49.649Z,99.99
2018-09-28T05:05:49.616Z,99.99
2018-09-28T05:06:49.611Z,99.99
2018-09-28T05:07:49.592Z,99.99
2018-09-28T05:08:49.565Z,99.99
2018-09-28T05:09:49.545Z,99.99
2018-09-28T05:10:49.533Z,99.99
2018-09-28T05:11:49.510Z,99.99
2018-09-28T05:12:49.496Z,99.99
2018-09-28T05:13:49.480Z,99.99
2018-09-28T05:14:49.465Z,99.99
2018-09-28T05:15:49.440Z,99.99
2018-09-28T05:16:49.418Z,99.99
2018-09-28T05:17:49.416Z,99.99
2018-09-28T05:18:49.383Z,99.99
2018-09-28T05:19:49.509Z,99.99
2018-09-28T05:20:49.401Z,99.99
2018-09-28T05:21:49.333Z,99.99
2018-09-28T05:22:49.315Z,99.99
2018-09-28T05:23:49.303Z,99.99
2018-09-28T05:24:49.275Z,99.99
2018-09-28T05:25:49.257Z,99.99
2018-09-28T05:26:49.237Z,99.99
2018-09-28T05:27:49.227Z,99.99
2018-09-28T05:28:49.203Z,99.99
2018-09-28T05:29:49.184Z,99.99
2018-09-28T05:30:53.972Z,99.99
2018-09-28T05:31:49.297Z,99.99
2018-09-28T05:32:49.371Z,99.99
2018-09-28T05:33:49.114Z,99.99
2018-09-28T05:34:49.094Z,99.99
2018-09-28T05:35:49.085Z,99.99
2018-09-28T05:36:49.057Z,99.99
2018-09-28T05:37:49.041Z,99.99
2018-09-28T05:38:49.183Z,99.99
2018-09-28T05:39:49.002Z,99.99
2018-09-28T05:40:48.984Z,99.99
2018-09-28T05:41:49.031Z,99.99
2018-09-28T05:42:48.948Z,99.99
2018-09-28T05:43:49.025Z,99.99
2018-09-28T05:44:48.924Z,99.99
2018-09-28T05:45:48.893Z,99.99
2018-09-28T05:46:48.878Z,99.99
2018-09-28T05:47:48.907Z,99.99
2018-09-28T05:48:48.846Z,99.99
2018-09-28T05:49:48.833Z,99.99
2018-09-28T05:50:48.808Z,99.99
2018-09-28T05:51:48.785Z,99.99
2018-09-28T05:52:48.815Z,99.99
2018-09-28T05:53:48.755Z,99.99
2018-09-28T05:54:48.735Z,99.99
2018-09-28T05:55:48.719Z,99.99
2018-09-28T05:56:48.696Z,99.99
2018-09-28T05:57:48.684Z,99.99
2018-09-28T05:58:48.676Z,99.99
2018-09-28T05:59:48.641Z,99.99
2018-09-28T06:00:48.631Z,99.99
2018-09-28T06:01:48.612Z,99.99
2018-09-28T06:02:48.587Z,99.99
2018-09-28T06:03:48.571Z,99.99
2018-09-28T06:04:48.552Z,99.99
2018-09-28T06:05:48.552Z,99.99
2018-09-28T06:06:48.522Z,99.99
2018-09-28T06:07:48.505Z,99.99
2018-09-28T06:08:48.611Z,99.99
2018-09-28T06:09:48.461Z,99.99
2018-09-28T06:10:48.449Z,99.99
2018-09-28T06:11:48.448Z,99.99
2018-09-28T06:12:48.409Z,99.99
2018-09-28T06:13:48.394Z,99.99
2018-09-28T06:14:48.371Z,99.99
2018-09-28T06:15:48.351Z,99.99
2018-09-28T06:16:48.353Z,99.99
2018-09-28T06:17:48.318Z,99.99
2018-09-28T06:18:48.358Z,99.99
2018-09-28T06:19:48.305Z,99.99
2018-09-28T06:20:48.265Z,99.99
2018-09-28T06:21:48.244Z,99.99
2018-09-28T06:22:48.232Z,99.99
2018-09-28T06:23:48.211Z,99.99
2018-09-28T06:24:48.360Z,99.99
2018-09-28T06:25:48.219Z,99.99
2018-09-28T06:26:48.152Z,99.99
2018-09-28T06:27:48.185Z,99.99
2018-09-28T06:28:48.114Z,99.99
2018-09-28T06:29:48.158Z,99.99
2018-09-28T06:30:48.090Z,99.99
2018-09-28T06:31:48.061Z,99.99
2018-09-28T06:32:48.043Z,99.99
2018-09-28T06:33:48.023Z,99.99
2018-09-28T06:34:48.018Z,99.99
2018-09-28T06:35:47.993Z,99.99
2018-09-28T06:36:47.996Z,99.99
2018-09-28T06:37:47.951Z,99.99
2018-09-28T06:38:47.933Z,99.99
2018-09-28T06:39:47.922Z,99.99
2018-09-28T06:40:47.897Z,99.99
2018-09-28T06:41:47.889Z,99.99
2018-09-28T06:42:47.860Z,99.99
2018-09-28T06:43:47.843Z,99.99
2018-09-28T06:44:47.887Z,99.99
2018-09-28T06:45:47.811Z,99.99
2018-09-28T06:46:47.804Z,99.99
2018-09-28T06:47:47.808Z,99.99
2018-09-28T06:48:47.760Z,99.99
2018-09-28T06:49:47.732Z,99.99
2018-09-28T06:50:47.720Z,99.99
2018-09-28T06:51:47.698Z,99.99
2018-09-28T06:52:47.688Z,99.99
2018-09-28T06:53:47.672Z,99.99
2018-09-28T06:54:47.674Z,99.99
2018-09-28T06:55:47.624Z,99.99
2018-09-28T06:56:47.606Z,99.99
2018-09-28T06:57:47.690Z,99.99
2018-09-28T06:58:47.583Z,99.99
2018-09-28T06:59:47.605Z,99.99
2018-09-28T07:00:47.539Z,99.99
2018-09-28T07:01:47.524Z,99.99
2018-09-28T07:02:47.496Z,99.99
2018-09-28T07:03:47.479Z,99.99
2018-09-28T07:04:47.469Z,99.99
2018-09-28T07:05:47.478Z,99.99
2018-09-28T07:06:47.426Z,99.99
2018-09-28T07:07:47.409Z,99.99
2018-09-28T07:08:47.390Z,99.99
2018-09-28T07:09:47.387Z,99.99
2018-09-28T07:10:47.361Z,99.99
2018-09-28T07:11:47.419Z,99.99
2018-09-28T07:12:47.319Z,99.99
2018-09-28T07:13:47.298Z,99.99
2018-09-28T07:14:47.286Z,99.99
2018-09-28T07:15:47.266Z,99.99
2018-09-28T07:16:47.371Z,99.99
2018-09-28T07:17:47.256Z,99.99
2018-09-28T07:18:47.213Z,99.99
2018-09-28T07:19:47.295Z,99.99
2018-09-28T07:20:47.188Z,99.38
2018-09-28T07:21:47.161Z,98.90
2018-09-28T07:22:47.149Z,99.57
2018-09-28T07:23:47.161Z,98.90
2018-09-28T07:24:47.214Z,98.71
2018-09-28T07:25:47.085Z,98.43
2018-09-28T07:26:47.082Z,98.24
2018-09-28T07:27:47.054Z,98.52
2018-09-28T07:28:47.040Z,98.71
2018-09-28T07:29:47.094Z,98.33
2018-09-28T07:30:47.011Z,98.33
2018-09-28T07:31:46.985Z,97.85
2018-09-28T07:32:46.964Z,97.47
2018-09-28T07:33:46.947Z,97.56
2018-09-28T07:34:46.928Z,97.42
2018-09-28T07:35:46.994Z,97.04
2018-09-28T07:36:46.927Z,97.85
2018-09-28T07:37:46.873Z,97.85
2018-09-28T07:38:46.858Z,98.04
2018-09-28T07:39:46.843Z,97.18
2018-09-28T07:40:46.824Z,96.47
2018-09-28T07:41:46.861Z,96.47
2018-09-28T07:42:46.793Z,96.08
2018-09-28T07:43:46.900Z,96.32
2018-09-28T07:44:46.754Z,95.70
2018-09-28T07:45:46.736Z,95.79
2018-09-28T07:46:46.827Z,95.31
2018-09-28T07:47:46.767Z,95.31
2018-09-28T07:48:46.687Z,95.51
2018-09-28T07:49:46.668Z,95.31
2018-09-28T07:50:46.657Z,95.03
2018-09-28T07:51:46.633Z,95.22
2018-09-28T07:52:46.623Z,95.22
2018-09-28T07:53:46.600Z,94.50
2018-09-28T07:54:46.582Z,94.50
2018-09-28T08:00:40.754Z,90.82
2018-09-28T08:01:40.738Z,91.49
2018-09-28T08:02:40.722Z,91.58
2018-09-28T08:03:40.705Z,91.58
2018-09-28T08:04:40.682Z,91.11
2018-09-28T08:05:40.663Z,91.58
2018-09-28T08:06:40.645Z,90.15
2018-09-28T08:07:40.628Z,89.48
2018-09-28T08:08:40.611Z,89.86
2018-09-28T08:09:40.748Z,89.76
2018-09-28T08:10:40.576Z,89.95
2018-09-28T08:11:40.563Z,89.38
2018-09-28T08:12:40.552Z,88.81
2018-09-28T08:13:40.534Z,89.09
2018-09-28T08:14:40.506Z,88.52
2018-09-28T08:15:40.492Z,88.71
2018-09-28T08:16:40.482Z,89.29
2018-09-28T08:17:40.456Z,89.76
2018-09-28T08:18:40.438Z,90.24
2018-09-28T08:19:40.422Z,89.76
2018-09-28T08:20:40.407Z,88.04
2018-09-28T08:21:40.403Z,87.37
2018-09-28T08:22:40.376Z,87.66
2018-09-28T08:23:40.356Z,87.37
2018-09-28T08:24:40.375Z,87.18
2018-09-28T08:25:40.320Z,88.04
2018-09-28T08:26:40.301Z,87.08
2018-09-28T08:27:40.290Z,88.33
2018-09-28T08:28:40.274Z,86.90
2018-09-28T08:29:40.285Z,87.47
2018-09-28T08:30:40.245Z,86.80
2018-09-28T08:31:40.217Z,86.04
2018-09-28T08:32:40.209Z,87.13
2018-09-28T08:33:40.185Z,86.61
2018-09-28T08:34:40.166Z,85.50
2018-09-28T08:35:40.155Z,85.31
2018-09-28T08:36:40.227Z,84.74
2018-09-28T08:37:40.116Z,85.02
2018-09-28T08:38:40.097Z,84.74
2018-09-28T08:39:40.133Z,84.26
2018-09-28T08:40:40.071Z,84.92
2018-09-28T08:41:40.103Z,85.41
2018-09-28T08:42:40.035Z,86.51
2018-09-28T08:43:40.110Z,88.13
2018-09-28T08:44:40.004Z,90.82
2018-09-28T08:45:39.994Z,92.25
2018-09-28T08:46:39.966Z,93.50
2018-09-28T08:47:39.953Z,94.21
2018-09-28T08:48:39.935Z,94.41
2018-09-28T08:49:39.912Z,95.17
2018-09-28T08:50:39.896Z,95.46
2018-09-28T08:51:39.879Z,95.07
2018-09-28T08:52:39.921Z,95.07
2018-09-28T08:53:39.847Z,94.26
2018-09-28T08:54:39.828Z,93.69
2018-09-28T08:55:39.886Z,92.73
2018-09-28T08:56:39.793Z,92.83
2018-09-28T08:57:39.778Z,92.21
2018-09-28T08:58:39.792Z,91.15
2018-09-28T08:59:39.747Z,90.09
2018-09-28T09:00:39.728Z,89.43
2018-09-28T09:01:39.712Z,89.72
2018-09-28T09:02:39.772Z,89.72
2018-09-28T09:03:39.686Z,87.80
2018-09-28T09:04:39.675Z,87.90
2018-09-28T09:05:39.647Z,88.09
2018-09-28T09:06:39.627Z,88.66
2018-09-28T09:07:39.611Z,88.28
2018-09-28T09:08:39.597Z,88.47
2018-09-28T09:09:39.588Z,89.04
2018-09-28T09:10:39.562Z,88.18
2018-09-28T09:11:39.563Z,89.09
2018-09-28T09:12:39.529Z,89.76
2018-09-28T09:13:39.512Z,90.63
2018-09-28T09:14:39.513Z,90.44
2018-09-28T09:15:39.482Z,90.53
2018-09-28T09:16:39.462Z,90.05
2018-09-28T09:17:39.446Z,90.00
2018-09-28T09:18:39.430Z,90.00
2018-09-28T09:19:39.419Z,87.99
2018-09-28T09:20:39.496Z,84.55
2018-09-28T09:21:39.382Z,83.39
2018-09-28T09:22:39.395Z,81.77
2018-09-28T09:23:39.346Z,81.77
2018-09-28T09:24:39.333Z,81.20
2018-09-28T09:25:39.315Z,79.47
2018-09-28T09:26:39.296Z,78.80
2018-09-28T09:27:39.282Z,78.57
2018-09-28T09:28:39.267Z,79.33
2018-09-28T09:29:39.246Z,78.99
2018-09-28T09:30:39.231Z,79.08
2018-09-28T09:31:39.215Z,78.70
2018-09-28T09:32:39.202Z,77.84
2018-09-28T09:33:39.180Z,77.94
2018-09-28T09:34:39.165Z,78.51
2018-09-28T09:35:39.148Z,78.61
2018-09-28T09:36:39.168Z,78.51
2018-09-28T09:37:39.115Z,78.89
2018-09-28T09:38:39.255Z,78.89
2018-09-28T09:39:39.128Z,78.89
2018-09-28T09:40:39.065Z,79.18
2018-09-28T09:41:39.101Z,78.55
2018-09-28T09:42:39.107Z,77.59
2018-09-28T09:43:39.022Z,78.07
2018-09-28T09:44:38.999Z,77.65
2018-09-28T09:45:38.982Z,78.03
2018-09-28T09:46:38.964Z,77.88
2018-09-28T09:47:38.948Z,77.36
2018-09-28T09:48:38.939Z,77.21
2018-09-28T09:49:38.918Z,77.31
2018-09-28T09:50:38.912Z,76.82
2018-09-28T09:51:38.903Z,77.78
2018-09-28T09:52:38.869Z,75.48
2018-09-28T09:53:38.865Z,75.48
2018-09-28T09:54:38.838Z,76.06
2018-09-28T09:55:38.821Z,74.72
2018-09-28T09:56:38.805Z,75.10
2018-09-28T09:57:38.928Z,75.01
2018-09-28T09:58:38.765Z,74.91
2018-09-28T09:59:38.773Z,75.10
2018-09-28T10:00:38.765Z,74.91
2018-09-28T10:01:38.727Z,74.97
2018-09-28T10:02:38.703Z,75.01
2018-09-28T10:03:38.687Z,75.39
2018-09-28T10:04:38.687Z,74.68
2018-09-28T10:05:38.656Z,74.82
2018-09-28T10:06:38.643Z,74.43
2018-09-28T10:07:38.638Z,75.10
2018-09-28T10:08:38.608Z,73.95
2018-09-28T10:09:38.647Z,74.05
2018-09-28T10:10:38.589Z,73.19
2018-09-28T10:11:38.554Z,72.42
2018-09-28T10:12:38.738Z,73.13
2018-09-28T10:13:38.521Z,71.17
2018-09-28T10:14:38.512Z,70.79
2018-09-28T10:15:38.497Z,70.50
2018-09-28T10:16:38.472Z,70.41
2018-09-28T10:17:38.567Z,68.97
2018-09-28T10:18:38.452Z,70.60
2018-09-28T10:19:38.478Z,70.73
2018-09-28T10:20:38.411Z,68.81
2018-09-28T10:21:38.408Z,67.57
2018-09-28T10:22:38.381Z,68.14
2018-09-28T10:23:38.363Z,67.69
2018-09-28T10:24:38.408Z,67.22
2018-09-28T10:25:38.336Z,65.20
2018-09-28T10:26:38.316Z,64.25
2018-09-28T10:27:38.484Z,64.40
2018-09-28T10:28:38.353Z,64.92
2018-09-28T10:29:38.282Z,64.25
2018-09-28T10:30:38.267Z,64.15
2018-09-28T10:31:38.237Z,62.81
2018-09-28T10:32:38.223Z,62.33
2018-09-28T10:33:38.248Z,61.85
2018-09-28T10:34:38.248Z,62.52
2018-09-28T10:35:38.176Z,61.75
2018-09-28T10:36:38.163Z,62.04
2018-09-28T10:37:38.152Z,63.38
2018-09-28T10:38:38.131Z,62.04
2018-09-28T10:39:38.162Z,61.49
2018-09-28T10:40:38.177Z,60.35
2018-09-28T10:41:38.089Z,60.82
2018-09-28T10:42:38.079Z,61.21
2018-09-28T10:43:38.072Z,60.40
2018-09-28T10:44:38.039Z,59.66
2018-09-28T10:45:38.051Z,56.81
2018-09-28T10:46:38.116Z,55.30
2018-09-28T10:47:38.001Z,53.81
2018-09-28T10:48:37.982Z,51.62
2018-09-28T10:49:37.982Z,50.21
2018-09-28T10:50:37.964Z,49.43
2018-09-28T10:51:37.958Z,49.27
2018-09-28T10:52:38.003Z,48.59
2018-09-28T10:53:37.916Z,47.60
2018-09-28T10:54:37.896Z,48.21
2018-09-28T10:55:37.889Z,47.65
2018-09-28T10:56:37.872Z,46.11
2018-09-28T10:57:37.863Z,46.97
2018-09-28T10:58:37.862Z,46.20
2018-09-28T10:59:37.842Z,47.07
2018-09-28T11:00:37.827Z,47.31
2018-09-28T11:01:37.811Z,47.97
2018-09-28T11:02:37.802Z,49.38
2018-09-28T11:03:37.840Z,50.32
2018-09-28T11:04:37.842Z,50.87
2018-09-28T11:05:37.769Z,51.76
2018-09-28T11:06:37.751Z,51.76
2018-09-28T11:07:37.748Z,51.57
2018-09-28T11:08:37.781Z,51.21
2018-09-28T11:09:37.769Z,51.41
2018-09-28T11:10:37.754Z,51.57
2018-09-28T11:11:37.695Z,52.54
2018-09-28T11:12:37.684Z,52.63
2018-09-28T11:13:37.682Z,53.02
2018-09-28T11:14:37.667Z,52.25
2018-09-28T11:15:37.696Z,52.54
2018-09-28T11:16:37.635Z,52.73
2018-09-28T11:17:37.624Z,52.73
2018-09-28T11:18:37.612Z,52.27
2018-09-28T11:19:37.600Z,51.14
2018-09-28T11:20:37.591Z,50.88
2018-09-28T11:21:37.639Z,49.91
2018-09-28T11:22:37.571Z,49.12
2018-09-28T11:23:37.551Z,50.81
2018-09-28T11:24:37.549Z,52.61
2018-09-28T11:25:37.528Z,53.96
2018-09-28T11:26:37.575Z,53.57
2018-09-28T11:27:37.520Z,53.96
2018-09-28T11:28:37.493Z,53.31
2018-09-28T11:29:37.498Z,53.57
2018-09-28T11:30:37.465Z,53.96
2018-09-28T11:31:37.455Z,53.76
2018-09-28T11:32:37.445Z,54.53
2018-09-28T11:33:37.510Z,55.11
2018-09-28T11:34:37.420Z,54.60
2018-09-28T11:35:37.405Z,55.53
2018-09-28T11:36:37.406Z,56.49
2018-09-28T11:37:37.438Z,57.23
2018-09-28T11:38:37.373Z,58.58
2018-09-28T11:39:37.384Z,58.80
2018-09-28T11:40:37.340Z,57.97
2018-09-28T11:41:37.327Z,57.29
2018-09-28T11:42:37.314Z,56.16
2018-09-28T11:43:37.302Z,55.49
2018-09-28T11:44:37.297Z,53.76
2018-09-28T11:45:37.321Z,53.96
2018-09-28T11:46:37.264Z,53.03
2018-09-28T11:47:37.249Z,54.09
2018-09-28T11:48:37.240Z,55.05
2018-09-28T11:49:37.223Z,55.02
2018-09-28T11:50:37.327Z,55.22
2018-09-28T11:51:37.210Z,55.34
2018-09-28T11:52:37.189Z,55.34
2018-09-28T11:53:37.211Z,55.63
2018-09-28T11:54:37.171Z,53.92
2018-09-28T11:55:37.194Z,52.89
2018-09-28T11:56:37.127Z,52.00
2018-09-28T11:57:37.142Z,52.48
2018-09-28T11:58:37.104Z,52.29
2018-09-28T11:59:37.086Z,51.35
2018-09-28T12:00:37.074Z,50.78
2018-09-28T12:01:37.063Z,51.29
2018-09-28T12:02:37.048Z,50.13
2018-09-28T12:03:37.090Z,49.27
2018-09-28T12:04:37.024Z,48.97
2018-09-28T12:05:37.005Z,49.91
2018-09-28T12:06:37.143Z,49.89
2018-09-28T12:07:36.980Z,50.27
2018-09-28T12:08:36.970Z,50.95
2018-09-28T12:09:37.075Z,51.59
2018-09-28T12:10:36.932Z,51.79
2018-09-28T12:11:36.927Z,52.17
2018-09-28T12:12:36.954Z,53.23
2018-09-28T12:13:36.892Z,53.32
2018-09-28T12:14:36.879Z,53.32
2018-09-28T12:16:36.851Z,53.90
2018-09-28T12:17:37.046Z,53.90
2018-09-28T12:18:36.860Z,53.35
2018-09-28T12:19:36.802Z,52.87
2018-09-28T12:20:36.790Z,52.29
2018-09-28T12:21:36.828Z,52.77
2018-09-28T12:22:36.766Z,53.06
2018-09-28T12:23:36.745Z,52.87
2018-09-28T12:24:36.779Z,52.46
2018-09-28T12:25:36.726Z,52.84
2018-09-28T12:26:36.707Z,52.65
2018-09-28T12:27:36.714Z,52.81
2018-09-28T12:28:36.683Z,53.11
2018-09-28T12:29:36.667Z,53.39
2018-09-28T12:30:36.721Z,52.84
2018-09-28T12:31:36.630Z,52.75
2018-09-28T12:32:36.613Z,52.65
2018-09-28T12:33:36.675Z,52.55
2018-09-28T12:34:36.583Z,52.17
2018-09-28T12:35:36.618Z,52.55
2018-09-28T12:36:36.623Z,52.46
2018-09-28T12:37:36.544Z,53.13
2018-09-28T12:38:36.529Z,52.65
2018-09-28T12:39:36.566Z,52.75
2018-09-28T12:40:36.497Z,53.32
2018-09-28T12:41:36.496Z,53.32
2018-09-28T12:42:36.505Z,53.03
2018-09-28T12:43:36.470Z,52.75
2018-09-28T12:44:36.506Z,52.55
2018-09-28T12:45:36.522Z,52.75
2018-09-28T12:46:36.404Z,52.75
2018-09-28T12:47:36.400Z,53.16
2018-09-28T12:48:36.443Z,52.68
2018-09-28T12:49:36.414Z,52.39
2018-09-28T12:50:36.399Z,52.20
2018-09-28T12:51:36.332Z,51.53
2018-09-28T12:52:36.442Z,51.72
2018-09-28T12:53:36.331Z,51.91
2018-09-28T12:54:36.307Z,52.48
2018-09-28T12:55:36.294Z,52.94
2018-09-28T12:56:36.339Z,53.13
2018-09-28T12:57:36.247Z,53.90
2018-09-28T12:58:36.236Z,54.38